PWSweather.com
Personal Weather Stations
Station Observations
HVALPSUND
Hvalpsund, FarsoeDK 9640

HvalpsundFarsoeDK 9640

Lat: 56.705311, Lon: 9.203638

Elevation: 5

Station Type: Vantage Pro2

http://hvalpsundvejr.dk

Latest ConditionsUpdated 5:12:00 AM GMT+01:01 Saturday, Feb 24, 2018
Currently Today's Max Today's Min Today's Average
Temperature 31.8°F-0.1°C 32.1°F0.1°C 31.1°F-0.5°C 31.6°F-0.2°C
Dew Point 26.6°F-3.0°C 28.4°F-2.0°C 26.6°F-3.0°C 27.2°F-2.7°C
Winds 3.5 mph E5.6 kmh E 8.4 mph ESE13.5 kmh ESE - 4.8 mph 7.7 kmh
Wind Gusts 6.0 mph9.7 kmh 13.0 mph20.9 kmh - -
Humidity 81% 86% 81% 83%
Pressure 30.50 in1032.8 mb 30.50 in1032.8 mb 30.43 in1030.5 mb -
Hour Temp Dew Point Humidity Winds Wind Gusts Pressure Precip Precip Rate Daily Precip Total
05:12 AM 31.8°F-0.1°C 26.6°F-3.0°C 81% 3.5 mph E5.6 kmh E 6.0 mph9.7 kmh 30.50 in1032.8 mb 0.00 in0.0 mm 0.00 in0.0 mm 0.00 in0.0 mm
05:11 AM 31.8°F-0.1°C 26.6°F-3.0°C 81% 3.4 mph E5.5 kmh E 7.0 mph11.3 kmh 30.50 in1032.8 mb 0.00 in0.0 mm 0.00 in0.0 mm 0.00 in0.0 mm
05:10 AM 31.9°F-0.1°C 26.7°F-2.9°C 81% 5.4 mph E8.7 kmh E 8.0 mph12.9 kmh 30.50 in1032.8 mb 0.00 in0.0 mm 0.00 in0.0 mm 0.00 in0.0 mm
05:09 AM 31.9°F-0.1°C 26.7°F-2.9°C 81% 6.9 mph E11.1 kmh E 8.0 mph12.9 kmh 30.50 in1032.8 mb 0.00 in0.0 mm 0.00 in0.0 mm 0.00 in0.0 mm
05:08 AM 31.8°F-0.1°C 26.6°F-3.0°C 81% 6.2 mph E10.0 kmh E 8.0 mph12.9 kmh 30.50 in1032.8 mb 0.00 in0.0 mm 0.00 in0.0 mm 0.00 in0.0 mm
05:07 AM 31.8°F-0.1°C 26.6°F-3.0°C 81% 6.9 mph E11.1 kmh E 8.0 mph12.9 kmh 30.50 in1032.8 mb 0.00 in0.0 mm 0.00 in0.0 mm 0.00 in0.0 mm
05:06 AM 31.8°F-0.1°C 26.6°F-3.0°C 81% 4.9 mph E7.9 kmh E 8.0 mph12.9 kmh 30.50 in1032.8 mb 0.00 in0.0 mm 0.00 in0.0 mm 0.00 in0.0 mm
05:05 AM 31.9°F-0.1°C 26.7°F-2.9°C 81% 3.9 mph E6.3 kmh E 8.0 mph12.9 kmh 30.50 in1032.8 mb 0.00 in0.0 mm 0.00 in0.0 mm 0.00 in0.0 mm
05:04 AM 31.9°F-0.1°C 26.7°F-2.9°C 81% 6.6 mph E10.6 kmh E 8.0 mph12.9 kmh 30.50 in1032.8 mb 0.00 in0.0 mm 0.00 in0.0 mm 0.00 in0.0 mm
05:03 AM 31.9°F-0.1°C 26.7°F-2.9°C 81% 4.5 mph E7.2 kmh E 8.0 mph12.9 kmh 30.50 in1032.8 mb 0.00 in0.0 mm 0.00 in0.0 mm 0.00 in0.0 mm
05:02 AM 31.9°F-0.1°C 26.7°F-2.9°C 81% 7.0 mph E11.3 kmh E 8.0 mph12.9 kmh 30.50 in1032.8 mb 0.00 in0.0 mm 0.00 in0.0 mm 0.00 in0.0 mm
05:01 AM 31.9°F-0.1°C 26.7°F-2.9°C 81% 4.5 mph E7.2 kmh E 7.0 mph11.3 kmh 30.50 in1032.8 mb 0.00 in0.0 mm 0.00 in0.0 mm 0.00 in0.0 mm
05:00 AM 31.9°F-0.1°C 26.7°F-2.9°C 81% 3.3 mph E5.3 kmh E 6.0 mph9.7 kmh 30.50 in1032.8 mb 0.00 in0.0 mm 0.00 in0.0 mm 0.00 in0.0 mm
04:59 AM 31.9°F-0.1°C 26.7°F-2.9°C 81% 3.7 mph E6.0 kmh E 7.0 mph11.3 kmh 30.50 in1032.8 mb 0.00 in0.0 mm 0.00 in0.0 mm 0.00 in0.0 mm
04:58 AM 31.9°F-0.1°C 26.7°F-2.9°C 81% 4.9 mph E7.9 kmh E 8.0 mph12.9 kmh 30.50 in1032.8 mb 0.00 in0.0 mm 0.00 in0.0 mm 0.00 in0.0 mm
04:57 AM 31.9°F-0.1°C 26.7°F-2.9°C 81% 5.9 mph E9.5 kmh E 8.0 mph12.9 kmh 30.50 in1032.8 mb 0.00 in0.0 mm 0.00 in0.0 mm 0.00 in0.0 mm
04:56 AM 31.9°F-0.1°C 26.7°F-2.9°C 81% 3.8 mph E6.1 kmh E 7.0 mph11.3 kmh 30.50 in1032.8 mb 0.00 in0.0 mm 0.00 in0.0 mm 0.00 in0.0 mm
04:55 AM 31.9°F-0.1°C 26.7°F-2.9°C 81% 4.8 mph E7.7 kmh E 8.0 mph12.9 kmh 30.50 in1032.8 mb 0.00 in0.0 mm 0.00 in0.0 mm 0.00 in0.0 mm
04:54 AM 31.9°F-0.1°C 26.7°F-2.9°C 81% 5.8 mph E9.3 kmh E 8.0 mph12.9 kmh 30.50 in1032.8 mb 0.00 in0.0 mm 0.00 in0.0 mm 0.00 in0.0 mm
04:53 AM 31.9°F-0.1°C 26.7°F-2.9°C 81% 5.9 mph E9.5 kmh E 8.0 mph12.9 kmh 30.50 in1032.8 mb 0.00 in0.0 mm 0.00 in0.0 mm 0.00 in0.0 mm
04:52 AM 31.9°F-0.1°C 26.7°F-2.9°C 81% 5.7 mph E9.2 kmh E 8.0 mph12.9 kmh 30.50 in1032.8 mb 0.00 in0.0 mm 0.00 in0.0 mm 0.00 in0.0 mm
04:51 AM 31.9°F-0.1°C 26.7°F-2.9°C 81% 5.5 mph E8.9 kmh E 8.0 mph12.9 kmh 30.50 in1032.8 mb 0.00 in0.0 mm 0.00 in0.0 mm 0.00 in0.0 mm
04:50 AM 31.9°F-0.1°C 26.7°F-2.9°C 81% 6.5 mph E10.5 kmh E 8.0 mph12.9 kmh 30.50 in1032.8 mb 0.00 in0.0 mm 0.00 in0.0 mm 0.00 in0.0 mm
04:49 AM 31.9°F-0.1°C 26.7°F-2.9°C 81% 4.7 mph E7.6 kmh E 7.0 mph11.3 kmh 30.50 in1032.8 mb 0.00 in0.0 mm 0.00 in0.0 mm 0.00 in0.0 mm
04:48 AM 31.9°F-0.1°C 26.7°F-2.9°C 81% 3.3 mph E5.3 kmh E 6.0 mph9.7 kmh 30.50 in1032.8 mb 0.00 in0.0 mm 0.00 in0.0 mm 0.00 in0.0 mm
04:47 AM 31.9°F-0.1°C 26.7°F-2.9°C 81% 3.8 mph E6.1 kmh E 8.0 mph12.9 kmh 30.50 in1032.8 mb 0.00 in0.0 mm 0.00 in0.0 mm 0.00 in0.0 mm
04:46 AM 31.9°F-0.1°C 26.7°F-2.9°C 81% 6.4 mph E10.3 kmh E 8.0 mph12.9 kmh 30.49 in1032.5 mb 0.00 in0.0 mm 0.00 in0.0 mm 0.00 in0.0 mm
04:45 AM 31.9°F-0.1°C 26.7°F-2.9°C 81% 4.0 mph E6.4 kmh E 8.0 mph12.9 kmh 30.50 in1032.8 mb 0.00 in0.0 mm 0.00 in0.0 mm 0.00 in0.0 mm
04:44 AM 31.9°F-0.1°C 26.7°F-2.9°C 81% 4.8 mph E7.7 kmh E 8.0 mph12.9 kmh 30.49 in1032.5 mb 0.00 in0.0 mm 0.00 in0.0 mm 0.00 in0.0 mm
04:43 AM 31.9°F-0.1°C 26.7°F-2.9°C 81% 5.6 mph E9.0 kmh E 7.0 mph11.3 kmh 30.49 in1032.5 mb 0.00 in0.0 mm 0.00 in0.0 mm 0.00 in0.0 mm
04:42 AM 31.9°F-0.1°C 26.7°F-2.9°C 81% 5.8 mph E9.3 kmh E 8.0 mph12.9 kmh 30.49 in1032.5 mb 0.00 in0.0 mm 0.00 in0.0 mm 0.00 in0.0 mm
04:41 AM 31.9°F-0.1°C 26.7°F-2.9°C 81% 5.9 mph E9.5 kmh E 8.0 mph12.9 kmh 30.49 in1032.5 mb 0.00 in0.0 mm 0.00 in0.0 mm 0.00 in0.0 mm
04:40 AM 31.9°F-0.1°C 26.7°F-2.9°C 81% 5.3 mph E8.5 kmh E 8.0 mph12.9 kmh 30.49 in1032.5 mb 0.00 in0.0 mm 0.00 in0.0 mm 0.00 in0.0 mm
04:39 AM 31.9°F-0.1°C 26.7°F-2.9°C 81% 4.0 mph E6.4 kmh E 9.0 mph14.5 kmh 30.49 in1032.5 mb 0.00 in0.0 mm 0.00 in0.0 mm 0.00 in0.0 mm
04:38 AM 31.9°F-0.1°C 26.7°F-2.9°C 81% 5.7 mph E9.2 kmh E 9.0 mph14.5 kmh 30.49 in1032.5 mb 0.00 in0.0 mm 0.00 in0.0 mm 0.00 in0.0 mm
04:37 AM 31.9°F-0.1°C 26.7°F-2.9°C 81% 4.3 mph E6.9 kmh E 7.0 mph11.3 kmh 30.49 in1032.5 mb 0.00 in0.0 mm 0.00 in0.0 mm 0.00 in0.0 mm
04:36 AM 31.9°F-0.1°C 26.7°F-2.9°C 81% 4.7 mph E7.6 kmh E 8.0 mph12.9 kmh 30.49 in1032.5 mb 0.00 in0.0 mm 0.00 in0.0 mm 0.00 in0.0 mm
04:35 AM 31.9°F-0.1°C 26.7°F-2.9°C 81% 6.3 mph E10.1 kmh E 8.0 mph12.9 kmh 30.49 in1032.5 mb 0.00 in0.0 mm 0.00 in0.0 mm 0.00 in0.0 mm
04:34 AM 31.9°F-0.1°C 26.7°F-2.9°C 81% 6.9 mph E11.1 kmh E 8.0 mph12.9 kmh 30.50 in1032.8 mb 0.00 in0.0 mm 0.00 in0.0 mm 0.00 in0.0 mm
04:33 AM 31.9°F-0.1°C 26.7°F-2.9°C 81% 5.6 mph E9.0 kmh E 8.0 mph12.9 kmh 30.49 in1032.5 mb 0.00 in0.0 mm 0.00 in0.0 mm 0.00 in0.0 mm
04:32 AM 31.9°F-0.1°C 26.7°F-2.9°C 81% 3.5 mph E5.6 kmh E 6.0 mph9.7 kmh 30.49 in1032.5 mb 0.00 in0.0 mm 0.00 in0.0 mm 0.00 in0.0 mm
04:31 AM 31.9°F-0.1°C 26.7°F-2.9°C 81% 4.2 mph E6.8 kmh E 8.0 mph12.9 kmh 30.49 in1032.5 mb 0.00 in0.0 mm 0.00 in0.0 mm 0.00 in0.0 mm
04:30 AM 31.9°F-0.1°C 26.7°F-2.9°C 81% 6.9 mph E11.1 kmh E 9.0 mph14.5 kmh 30.49 in1032.5 mb 0.00 in0.0 mm 0.00 in0.0 mm 0.00 in0.0 mm
04:29 AM 31.9°F-0.1°C 26.7°F-2.9°C 81% 5.5 mph E8.9 kmh E 9.0 mph14.5 kmh 30.49 in1032.5 mb 0.00 in0.0 mm 0.00 in0.0 mm 0.00 in0.0 mm
04:28 AM 31.9°F-0.1°C 26.7°F-2.9°C 81% 5.1 mph E8.2 kmh E 8.0 mph12.9 kmh 30.49 in1032.5 mb 0.00 in0.0 mm 0.00 in0.0 mm 0.00 in0.0 mm
04:27 AM 31.9°F-0.1°C 26.7°F-2.9°C 81% 5.8 mph ESE9.3 kmh ESE 8.0 mph12.9 kmh 30.49 in1032.5 mb 0.00 in0.0 mm 0.00 in0.0 mm 0.00 in0.0 mm
04:26 AM 31.9°F-0.1°C 26.7°F-2.9°C 81% 6.2 mph E10.0 kmh E 8.0 mph12.9 kmh 30.49 in1032.5 mb 0.00 in0.0 mm 0.00 in0.0 mm 0.00 in0.0 mm
04:25 AM 31.9°F-0.1°C 26.7°F-2.9°C 81% 6.9 mph E11.1 kmh E 9.0 mph14.5 kmh 30.49 in1032.5 mb 0.00 in0.0 mm 0.00 in0.0 mm 0.00 in0.0 mm
04:24 AM 31.8°F-0.1°C 26.6°F-3.0°C 81% 6.6 mph E10.6 kmh E 9.0 mph14.5 kmh 30.49 in1032.5 mb 0.00 in0.0 mm 0.00 in0.0 mm 0.00 in0.0 mm
04:23 AM 31.9°F-0.1°C 27.0°F-2.8°C 82% 7.3 mph E11.7 kmh E 9.0 mph14.5 kmh 30.49 in1032.5 mb 0.00 in0.0 mm 0.00 in0.0 mm 0.00 in0.0 mm
04:22 AM 31.9°F-0.1°C 27.0°F-2.8°C 82% 7.6 mph E12.2 kmh E 9.0 mph14.5 kmh 30.49 in1032.5 mb 0.00 in0.0 mm 0.00 in0.0 mm 0.00 in0.0 mm
04:21 AM 31.8°F-0.1°C 26.9°F-2.8°C 82% 7.0 mph E11.3 kmh E 9.0 mph14.5 kmh 30.49 in1032.5 mb 0.00 in0.0 mm 0.00 in0.0 mm 0.00 in0.0 mm
04:20 AM 31.8°F-0.1°C 26.9°F-2.8°C 82% 6.2 mph ESE10.0 kmh ESE 9.0 mph14.5 kmh 30.49 in1032.5 mb 0.00 in0.0 mm 0.00 in0.0 mm 0.00 in0.0 mm
04:19 AM 31.8°F-0.1°C 26.9°F-2.8°C 82% 7.5 mph E12.1 kmh E 10.0 mph16.1 kmh 30.49 in1032.5 mb 0.00 in0.0 mm 0.00 in0.0 mm 0.00 in0.0 mm
04:18 AM 31.8°F-0.1°C 26.9°F-2.8°C 82% 7.7 mph E12.4 kmh E 13.0 mph20.9 kmh 30.49 in1032.5 mb 0.00 in0.0 mm 0.00 in0.0 mm 0.00 in0.0 mm
04:17 AM 31.8°F-0.1°C 26.9°F-2.8°C 82% 7.3 mph E11.7 kmh E 13.0 mph20.9 kmh 30.49 in1032.5 mb 0.00 in0.0 mm 0.00 in0.0 mm 0.00 in0.0 mm
04:16 AM 31.8°F-0.1°C 26.9°F-2.8°C 82% 5.2 mph E8.4 kmh E 10.0 mph16.1 kmh 30.49 in1032.5 mb 0.00 in0.0 mm 0.00 in0.0 mm 0.00 in0.0 mm
04:15 AM 31.8°F-0.1°C 26.9°F-2.8°C 82% 7.6 mph E12.2 kmh E 10.0 mph16.1 kmh 30.49 in1032.5 mb 0.00 in0.0 mm 0.00 in0.0 mm 0.00 in0.0 mm
04:14 AM 31.8°F-0.1°C 26.9°F-2.8°C 82% 6.2 mph ESE10.0 kmh ESE 9.0 mph14.5 kmh 30.49 in1032.5 mb 0.00 in0.0 mm 0.00 in0.0 mm 0.00 in0.0 mm
04:13 AM 31.8°F-0.1°C 26.9°F-2.8°C 82% 6.9 mph E11.1 kmh E 10.0 mph16.1 kmh 30.49 in1032.5 mb 0.00 in0.0 mm 0.00 in0.0 mm 0.00 in0.0 mm
04:12 AM 31.8°F-0.1°C 26.9°F-2.8°C 82% 8.2 mph E13.2 kmh E 10.0 mph16.1 kmh 30.49 in1032.5 mb 0.00 in0.0 mm 0.00 in0.0 mm 0.00 in0.0 mm
04:11 AM 31.8°F-0.1°C 26.9°F-2.8°C 82% 7.2 mph E11.6 kmh E 9.0 mph14.5 kmh 30.49 in1032.5 mb 0.00 in0.0 mm 0.00 in0.0 mm 0.00 in0.0 mm
04:10 AM 31.8°F-0.1°C 26.9°F-2.8°C 82% 6.7 mph E10.8 kmh E 9.0 mph14.5 kmh 30.49 in1032.5 mb 0.00 in0.0 mm 0.00 in0.0 mm 0.00 in0.0 mm
04:09 AM 31.8°F-0.1°C 26.9°F-2.8°C 82% 7.1 mph E11.4 kmh E 10.0 mph16.1 kmh 30.49 in1032.5 mb 0.00 in0.0 mm 0.00 in0.0 mm 0.00 in0.0 mm
04:08 AM 31.7°F-0.2°C 26.8°F-2.9°C 82% 5.4 mph E8.7 kmh E 10.0 mph16.1 kmh 30.49 in1032.5 mb 0.00 in0.0 mm 0.00 in0.0 mm 0.00 in0.0 mm
04:07 AM 31.7°F-0.2°C 26.8°F-2.9°C 82% 5.4 mph E8.7 kmh E 8.0 mph12.9 kmh 30.49 in1032.5 mb 0.00 in0.0 mm 0.00 in0.0 mm 0.00 in0.0 mm
04:06 AM 31.7°F-0.2°C 26.8°F-2.9°C 82% 6.6 mph E10.6 kmh E 10.0 mph16.1 kmh 30.49 in1032.5 mb 0.00 in0.0 mm 0.00 in0.0 mm 0.00 in0.0 mm
04:05 AM 31.7°F-0.2°C 27.1°F-2.7°C 83% 7.4 mph E11.9 kmh E 10.0 mph16.1 kmh 30.49 in1032.5 mb 0.00 in0.0 mm 0.00 in0.0 mm 0.00 in0.0 mm
04:04 AM 31.6°F-0.2°C 27.0°F-2.8°C 83% 7.3 mph E11.7 kmh E 9.0 mph14.5 kmh 30.49 in1032.5 mb 0.00 in0.0 mm 0.00 in0.0 mm 0.00 in0.0 mm
04:03 AM 31.7°F-0.2°C 27.1°F-2.7°C 83% 5.9 mph E9.5 kmh E 8.0 mph12.9 kmh 30.49 in1032.5 mb 0.00 in0.0 mm 0.00 in0.0 mm 0.00 in0.0 mm
04:02 AM 31.6°F-0.2°C 27.0°F-2.8°C 83% 6.2 mph E10.0 kmh E 9.0 mph14.5 kmh 30.49 in1032.5 mb 0.00 in0.0 mm 0.00 in0.0 mm 0.00 in0.0 mm
04:01 AM 31.6°F-0.2°C 27.0°F-2.8°C 83% 6.5 mph E10.5 kmh E 9.0 mph14.5 kmh 30.49 in1032.5 mb 0.00 in0.0 mm 0.00 in0.0 mm 0.00 in0.0 mm
04:00 AM 31.6°F-0.2°C 27.0°F-2.8°C 83% 4.4 mph E7.1 kmh E 8.0 mph12.9 kmh 30.49 in1032.5 mb 0.00 in0.0 mm 0.00 in0.0 mm 0.00 in0.0 mm
03:59 AM 31.6°F-0.2°C 27.0°F-2.8°C 83% 6.7 mph E10.8 kmh E 8.0 mph12.9 kmh 30.49 in1032.5 mb 0.00 in0.0 mm 0.00 in0.0 mm 0.00 in0.0 mm
03:58 AM 31.6°F-0.2°C 27.0°F-2.8°C 83% 5.7 mph E9.2 kmh E 8.0 mph12.9 kmh 30.48 in1032.2 mb 0.00 in0.0 mm 0.00 in0.0 mm 0.00 in0.0 mm
03:57 AM 31.6°F-0.2°C 27.0°F-2.8°C 83% 4.3 mph E6.9 kmh E 7.0 mph11.3 kmh 30.48 in1032.2 mb 0.00 in0.0 mm 0.00 in0.0 mm 0.00 in0.0 mm
03:56 AM 31.6°F-0.2°C 27.0°F-2.8°C 83% 3.2 mph E5.1 kmh E 6.0 mph9.7 kmh 30.49 in1032.5 mb 0.00 in0.0 mm 0.00 in0.0 mm 0.00 in0.0 mm
03:55 AM 31.6°F-0.2°C 27.0°F-2.8°C 83% 4.2 mph E6.8 kmh E 7.0 mph11.3 kmh 30.49 in1032.5 mb 0.00 in0.0 mm 0.00 in0.0 mm 0.00 in0.0 mm
03:54 AM 31.6°F-0.2°C 27.0°F-2.8°C 83% 4.8 mph E7.7 kmh E 7.0 mph11.3 kmh 30.49 in1032.5 mb 0.00 in0.0 mm 0.00 in0.0 mm 0.00 in0.0 mm
03:53 AM 31.5°F-0.3°C 26.9°F-2.8°C 83% 3.5 mph E5.6 kmh E 8.0 mph12.9 kmh 30.48 in1032.2 mb 0.00 in0.0 mm 0.00 in0.0 mm 0.00 in0.0 mm
03:52 AM 31.6°F-0.2°C 27.0°F-2.8°C 83% 5.5 mph E8.9 kmh E 8.0 mph12.9 kmh 30.48 in1032.2 mb 0.00 in0.0 mm 0.00 in0.0 mm 0.00 in0.0 mm
03:51 AM 31.5°F-0.3°C 26.9°F-2.8°C 83% 4.7 mph E7.6 kmh E 7.0 mph11.3 kmh 30.48 in1032.2 mb 0.00 in0.0 mm 0.00 in0.0 mm 0.00 in0.0 mm
03:50 AM 31.6°F-0.2°C 27.0°F-2.8°C 83% 4.2 mph E6.8 kmh E 9.0 mph14.5 kmh 30.48 in1032.2 mb 0.00 in0.0 mm 0.00 in0.0 mm 0.00 in0.0 mm
03:49 AM 31.6°F-0.2°C 27.0°F-2.8°C 83% 5.2 mph E8.4 kmh E 9.0 mph14.5 kmh 30.48 in1032.2 mb 0.00 in0.0 mm 0.00 in0.0 mm 0.00 in0.0 mm
03:48 AM 31.6°F-0.2°C 27.0°F-2.8°C 83% 4.1 mph E6.6 kmh E 7.0 mph11.3 kmh 30.48 in1032.2 mb 0.00 in0.0 mm 0.00 in0.0 mm 0.00 in0.0 mm
03:47 AM 31.6°F-0.2°C 27.0°F-2.8°C 83% 4.1 mph E6.6 kmh E 8.0 mph12.9 kmh 30.48 in1032.2 mb 0.00 in0.0 mm 0.00 in0.0 mm 0.00 in0.0 mm
03:46 AM 31.5°F-0.3°C 26.9°F-2.8°C 83% 5.4 mph E8.7 kmh E 8.0 mph12.9 kmh 30.48 in1032.2 mb 0.00 in0.0 mm 0.00 in0.0 mm 0.00 in0.0 mm
03:45 AM 31.5°F-0.3°C 26.9°F-2.8°C 83% 3.9 mph E6.3 kmh E 6.0 mph9.7 kmh 30.48 in1032.2 mb 0.00 in0.0 mm 0.00 in0.0 mm 0.00 in0.0 mm
03:44 AM 31.5°F-0.3°C 26.9°F-2.8°C 83% 3.1 mph E5.0 kmh E 6.0 mph9.7 kmh 30.48 in1032.2 mb 0.00 in0.0 mm 0.00 in0.0 mm 0.00 in0.0 mm
03:43 AM 31.5°F-0.3°C 26.9°F-2.8°C 83% 3.5 mph E5.6 kmh E 6.0 mph9.7 kmh 30.48 in1032.2 mb 0.00 in0.0 mm 0.00 in0.0 mm 0.00 in0.0 mm
03:42 AM 31.5°F-0.3°C 26.9°F-2.8°C 83% 3.4 mph ESE5.5 kmh ESE 6.0 mph9.7 kmh 30.48 in1032.2 mb 0.00 in0.0 mm 0.00 in0.0 mm 0.00 in0.0 mm
03:41 AM 31.5°F-0.3°C 26.9°F-2.8°C 83% 4.1 mph E6.6 kmh E 8.0 mph12.9 kmh 30.48 in1032.2 mb 0.00 in0.0 mm 0.00 in0.0 mm 0.00 in0.0 mm
03:40 AM 31.5°F-0.3°C 26.9°F-2.8°C 83% 5.9 mph E9.5 kmh E 8.0 mph12.9 kmh 30.48 in1032.2 mb 0.00 in0.0 mm 0.00 in0.0 mm 0.00 in0.0 mm
03:39 AM 31.5°F-0.3°C 26.9°F-2.8°C 83% 5.7 mph E9.2 kmh E 8.0 mph12.9 kmh 30.48 in1032.2 mb 0.00 in0.0 mm 0.00 in0.0 mm 0.00 in0.0 mm
03:38 AM 31.4°F-0.3°C 26.8°F-2.9°C 83% 4.3 mph E6.9 kmh E 8.0 mph12.9 kmh 30.48 in1032.2 mb 0.00 in0.0 mm 0.00 in0.0 mm 0.00 in0.0 mm
03:37 AM 31.4°F-0.3°C 26.8°F-2.9°C 83% 5.1 mph E8.2 kmh E 8.0 mph12.9 kmh 30.48 in1032.2 mb 0.00 in0.0 mm 0.00 in0.0 mm 0.00 in0.0 mm
03:36 AM 31.4°F-0.3°C 26.8°F-2.9°C 83% 5.9 mph E9.5 kmh E 8.0 mph12.9 kmh 30.48 in1032.2 mb 0.00 in0.0 mm 0.00 in0.0 mm 0.00 in0.0 mm
03:35 AM 31.4°F-0.3°C 26.8°F-2.9°C 83% 6.7 mph E10.8 kmh E 9.0 mph14.5 kmh 30.48 in1032.2 mb 0.00 in0.0 mm 0.00 in0.0 mm 0.00 in0.0 mm
03:34 AM 31.4°F-0.3°C 26.8°F-2.9°C 83% 5.8 mph E9.3 kmh E 9.0 mph14.5 kmh 30.48 in1032.2 mb 0.00 in0.0 mm 0.00 in0.0 mm 0.00 in0.0 mm
03:33 AM 31.4°F-0.3°C 26.8°F-2.9°C 83% 3.3 mph E5.3 kmh E 4.0 mph6.4 kmh 30.48 in1032.2 mb 0.00 in0.0 mm 0.00 in0.0 mm 0.00 in0.0 mm
03:32 AM 31.4°F-0.3°C 26.8°F-2.9°C 83% 3.0 mph E4.8 kmh E 6.0 mph9.7 kmh 30.48 in1032.2 mb 0.00 in0.0 mm 0.00 in0.0 mm 0.00 in0.0 mm
03:31 AM 31.4°F-0.3°C 26.8°F-2.9°C 83% 4.0 mph E6.4 kmh E 7.0 mph11.3 kmh 30.48 in1032.2 mb 0.00 in0.0 mm 0.00 in0.0 mm 0.00 in0.0 mm
03:30 AM 31.4°F-0.3°C 26.8°F-2.9°C 83% 4.5 mph E7.2 kmh E 7.0 mph11.3 kmh 30.48 in1032.2 mb 0.00 in0.0 mm 0.00 in0.0 mm 0.00 in0.0 mm
03:29 AM 31.4°F-0.3°C 26.8°F-2.9°C 83% 3.9 mph E6.3 kmh E 6.0 mph9.7 kmh 30.48 in1032.2 mb 0.00 in0.0 mm 0.00 in0.0 mm 0.00 in0.0 mm
03:28 AM 31.3°F-0.4°C 26.7°F-2.9°C 83% 3.2 mph ESE5.1 kmh ESE 6.0 mph9.7 kmh 30.48 in1032.2 mb 0.00 in0.0 mm 0.00 in0.0 mm 0.00 in0.0 mm
03:27 AM 31.3°F-0.4°C 26.7°F-2.9°C 83% 3.1 mph E5.0 kmh E 6.0 mph9.7 kmh 30.48 in1032.2 mb 0.00 in0.0 mm 0.00 in0.0 mm 0.00 in0.0 mm
03:26 AM 31.3°F-0.4°C 26.7°F-2.9°C 83% 4.1 mph E6.6 kmh E 6.0 mph9.7 kmh 30.48 in1032.2 mb 0.00 in0.0 mm 0.00 in0.0 mm 0.00 in0.0 mm
03:25 AM 31.3°F-0.4°C 26.7°F-2.9°C 83% 3.1 mph ESE5.0 kmh ESE 6.0 mph9.7 kmh 30.48 in1032.2 mb 0.00 in0.0 mm 0.00 in0.0 mm 0.00 in0.0 mm
03:24 AM 31.3°F-0.4°C 26.7°F-2.9°C 83% 3.1 mph E5.0 kmh E 7.0 mph11.3 kmh 30.48 in1032.2 mb 0.00 in0.0 mm 0.00 in0.0 mm 0.00 in0.0 mm
03:23 AM 31.3°F-0.4°C 26.7°F-2.9°C 83% 5.4 mph ESE8.7 kmh ESE 7.0 mph11.3 kmh 30.48 in1032.2 mb 0.00 in0.0 mm 0.00 in0.0 mm 0.00 in0.0 mm
03:22 AM 31.3°F-0.4°C 26.7°F-2.9°C 83% 3.8 mph ESE6.1 kmh ESE 6.0 mph9.7 kmh 30.48 in1032.2 mb 0.00 in0.0 mm 0.00 in0.0 mm 0.00 in0.0 mm
03:21 AM 31.3°F-0.4°C 26.7°F-2.9°C 83% 2.9 mph E4.7 kmh E 4.0 mph6.4 kmh 30.48 in1032.2 mb 0.00 in0.0 mm 0.00 in0.0 mm 0.00 in0.0 mm
03:20 AM 31.2°F-0.4°C 26.6°F-3.0°C 83% 3.4 mph ESE5.5 kmh ESE 4.0 mph6.4 kmh 30.48 in1032.2 mb 0.00 in0.0 mm 0.00 in0.0 mm 0.00 in0.0 mm
03:19 AM 31.3°F-0.4°C 26.7°F-2.9°C 83% 2.5 mph ESE4.0 kmh ESE 4.0 mph6.4 kmh 30.47 in1031.8 mb 0.00 in0.0 mm 0.00 in0.0 mm 0.00 in0.0 mm
03:18 AM 31.3°F-0.4°C 26.7°F-2.9°C 83% 2.8 mph ESE4.5 kmh ESE 6.0 mph9.7 kmh 30.47 in1031.8 mb 0.00 in0.0 mm 0.00 in0.0 mm 0.00 in0.0 mm
03:17 AM 31.3°F-0.4°C 26.7°F-2.9°C 83% 3.8 mph ESE6.1 kmh ESE 6.0 mph9.7 kmh 30.48 in1032.2 mb 0.00 in0.0 mm 0.00 in0.0 mm 0.00 in0.0 mm
03:16 AM 31.3°F-0.4°C 26.7°F-2.9°C 83% 3.3 mph E5.3 kmh E 6.0 mph9.7 kmh 30.47 in1031.8 mb 0.00 in0.0 mm 0.00 in0.0 mm 0.00 in0.0 mm
03:15 AM 31.2°F-0.4°C 26.6°F-3.0°C 83% 2.9 mph E4.7 kmh E 9.0 mph14.5 kmh 30.47 in1031.8 mb 0.00 in0.0 mm 0.00 in0.0 mm 0.00 in0.0 mm
03:14 AM 31.2°F-0.4°C 26.6°F-3.0°C 83% 5.4 mph ESE8.7 kmh ESE 9.0 mph14.5 kmh 30.48 in1032.2 mb 0.00 in0.0 mm 0.00 in0.0 mm 0.00 in0.0 mm
03:13 AM 31.3°F-0.4°C 26.7°F-2.9°C 83% 4.5 mph ESE7.2 kmh ESE 7.0 mph11.3 kmh 30.47 in1031.8 mb 0.00 in0.0 mm 0.00 in0.0 mm 0.00 in0.0 mm
03:12 AM 31.2°F-0.4°C 26.6°F-3.0°C 83% 3.8 mph ESE6.1 kmh ESE 7.0 mph11.3 kmh 30.47 in1031.8 mb 0.00 in0.0 mm 0.00 in0.0 mm 0.00 in0.0 mm
03:11 AM 31.2°F-0.4°C 26.6°F-3.0°C 83% 4.5 mph E7.2 kmh E 6.0 mph9.7 kmh 30.47 in1031.8 mb 0.00 in0.0 mm 0.00 in0.0 mm 0.00 in0.0 mm
03:10 AM 31.3°F-0.4°C 26.7°F-2.9°C 83% 2.5 mph ESE4.0 kmh ESE 5.0 mph8.0 kmh 30.47 in1031.8 mb 0.00 in0.0 mm 0.00 in0.0 mm 0.00 in0.0 mm
03:09 AM 31.3°F-0.4°C 26.7°F-2.9°C 83% 3.4 mph ESE5.5 kmh ESE 6.0 mph9.7 kmh 30.47 in1031.8 mb 0.00 in0.0 mm 0.00 in0.0 mm 0.00 in0.0 mm
03:08 AM 31.3°F-0.4°C 26.7°F-2.9°C 83% 3.5 mph ESE5.6 kmh ESE 6.0 mph9.7 kmh 30.47 in1031.8 mb 0.00 in0.0 mm 0.00 in0.0 mm 0.00 in0.0 mm
03:07 AM 31.2°F-0.4°C 26.6°F-3.0°C 83% 3.2 mph ESE5.1 kmh ESE 4.0 mph6.4 kmh 30.47 in1031.8 mb 0.00 in0.0 mm 0.00 in0.0 mm 0.00 in0.0 mm
03:06 AM 31.3°F-0.4°C 26.7°F-2.9°C 83% 2.0 mph ESE3.2 kmh ESE 4.0 mph6.4 kmh 30.47 in1031.8 mb 0.00 in0.0 mm 0.00 in0.0 mm 0.00 in0.0 mm
03:05 AM 31.3°F-0.4°C 26.7°F-2.9°C 83% 2.2 mph ESE3.5 kmh ESE 6.0 mph9.7 kmh 30.47 in1031.8 mb 0.00 in0.0 mm 0.00 in0.0 mm 0.00 in0.0 mm
03:04 AM 31.3°F-0.4°C 26.7°F-2.9°C 83% 4.1 mph ESE6.6 kmh ESE 7.0 mph11.3 kmh 30.47 in1031.8 mb 0.00 in0.0 mm 0.00 in0.0 mm 0.00 in0.0 mm
03:03 AM 31.3°F-0.4°C 26.7°F-2.9°C 83% 4.6 mph E7.4 kmh E 7.0 mph11.3 kmh 30.47 in1031.8 mb 0.00 in0.0 mm 0.00 in0.0 mm 0.00 in0.0 mm
03:02 AM 31.3°F-0.4°C 26.7°F-2.9°C 83% 4.3 mph ESE6.9 kmh ESE 7.0 mph11.3 kmh 30.47 in1031.8 mb 0.00 in0.0 mm 0.00 in0.0 mm 0.00 in0.0 mm
03:01 AM 31.3°F-0.4°C 26.7°F-2.9°C 83% 3.9 mph E6.3 kmh E 7.0 mph11.3 kmh 30.47 in1031.8 mb 0.00 in0.0 mm 0.00 in0.0 mm 0.00 in0.0 mm
03:00 AM 31.3°F-0.4°C 26.7°F-2.9°C 83% 6.2 mph ESE10.0 kmh ESE 8.0 mph12.9 kmh 30.47 in1031.8 mb 0.00 in0.0 mm 0.00 in0.0 mm 0.00 in0.0 mm
02:59 AM 31.3°F-0.4°C 27.0°F-2.8°C 84% 5.9 mph E9.5 kmh E 9.0 mph14.5 kmh 30.47 in1031.8 mb 0.00 in0.0 mm 0.00 in0.0 mm 0.00 in0.0 mm
02:58 AM 31.2°F-0.4°C 26.9°F-2.8°C 84% 6.6 mph ESE10.6 kmh ESE 9.0 mph14.5 kmh 30.47 in1031.8 mb 0.00 in0.0 mm 0.00 in0.0 mm 0.00 in0.0 mm
02:57 AM 31.2°F-0.4°C 26.9°F-2.8°C 84% 3.8 mph E6.1 kmh E 6.0 mph9.7 kmh 30.47 in1031.8 mb 0.00 in0.0 mm 0.00 in0.0 mm 0.00 in0.0 mm
02:56 AM 31.2°F-0.4°C 26.9°F-2.8°C 84% 4.6 mph ESE7.4 kmh ESE 9.0 mph14.5 kmh 30.47 in1031.8 mb 0.00 in0.0 mm 0.00 in0.0 mm 0.00 in0.0 mm
02:55 AM 31.2°F-0.4°C 26.9°F-2.8°C 84% 7.4 mph ESE11.9 kmh ESE 9.0 mph14.5 kmh 30.47 in1031.8 mb 0.00 in0.0 mm 0.00 in0.0 mm 0.00 in0.0 mm
02:54 AM 31.2°F-0.4°C 26.9°F-2.8°C 84% 3.4 mph ESE5.5 kmh ESE 7.0 mph11.3 kmh 30.47 in1031.8 mb 0.00 in0.0 mm 0.00 in0.0 mm 0.00 in0.0 mm
02:53 AM 31.3°F-0.4°C 27.0°F-2.8°C 84% 3.0 mph ESE4.8 kmh ESE 4.0 mph6.4 kmh 30.47 in1031.8 mb 0.00 in0.0 mm 0.00 in0.0 mm 0.00 in0.0 mm
02:52 AM 31.2°F-0.4°C 26.9°F-2.8°C 84% 2.4 mph ESE3.9 kmh ESE 3.0 mph4.8 kmh 30.47 in1031.8 mb 0.00 in0.0 mm 0.00 in0.0 mm 0.00 in0.0 mm
02:51 AM 31.2°F-0.4°C 26.9°F-2.8°C 84% 2.5 mph ESE4.0 kmh ESE 7.0 mph11.3 kmh 30.47 in1031.8 mb 0.00 in0.0 mm 0.00 in0.0 mm 0.00 in0.0 mm
02:50 AM 31.2°F-0.4°C 26.9°F-2.8°C 84% 3.8 mph ESE6.1 kmh ESE 7.0 mph11.3 kmh 30.47 in1031.8 mb 0.00 in0.0 mm 0.00 in0.0 mm 0.00 in0.0 mm
02:49 AM 31.2°F-0.4°C 26.9°F-2.8°C 84% 5.2 mph E8.4 kmh E 8.0 mph12.9 kmh 30.47 in1031.8 mb 0.00 in0.0 mm 0.00 in0.0 mm 0.00 in0.0 mm
02:48 AM 31.2°F-0.4°C 26.9°F-2.8°C 84% 6.1 mph ESE9.8 kmh ESE 8.0 mph12.9 kmh 30.47 in1031.8 mb 0.00 in0.0 mm 0.00 in0.0 mm 0.00 in0.0 mm
02:47 AM 31.2°F-0.4°C 26.9°F-2.8°C 84% 5.2 mph E8.4 kmh E 8.0 mph12.9 kmh 30.47 in1031.8 mb 0.00 in0.0 mm 0.00 in0.0 mm 0.00 in0.0 mm
02:46 AM 31.2°F-0.4°C 26.9°F-2.8°C 84% 4.0 mph ESE6.4 kmh ESE 6.0 mph9.7 kmh 30.47 in1031.8 mb 0.00 in0.0 mm 0.00 in0.0 mm 0.00 in0.0 mm
02:45 AM 31.2°F-0.4°C 26.9°F-2.8°C 84% 3.4 mph E5.5 kmh E 7.0 mph11.3 kmh 30.47 in1031.8 mb 0.00 in0.0 mm 0.00 in0.0 mm 0.00 in0.0 mm
02:44 AM 31.2°F-0.4°C 26.9°F-2.8°C 84% 4.5 mph E7.2 kmh E 7.0 mph11.3 kmh 30.47 in1031.8 mb 0.00 in0.0 mm 0.00 in0.0 mm 0.00 in0.0 mm
02:43 AM 31.2°F-0.4°C 26.9°F-2.8°C 84% 3.9 mph E6.3 kmh E 7.0 mph11.3 kmh 30.47 in1031.8 mb 0.00 in0.0 mm 0.00 in0.0 mm 0.00 in0.0 mm
02:42 AM 31.1°F-0.5°C 26.8°F-2.9°C 84% 4.9 mph ESE7.9 kmh ESE 7.0 mph11.3 kmh 30.47 in1031.8 mb 0.00 in0.0 mm 0.00 in0.0 mm 0.00 in0.0 mm
02:41 AM 31.2°F-0.4°C 26.9°F-2.8°C 84% 3.8 mph ESE6.1 kmh ESE 7.0 mph11.3 kmh 30.47 in1031.8 mb 0.00 in0.0 mm 0.00 in0.0 mm 0.00 in0.0 mm
02:40 AM 31.1°F-0.5°C 26.8°F-2.9°C 84% 4.7 mph E7.6 kmh E 7.0 mph11.3 kmh 30.47 in1031.8 mb 0.00 in0.0 mm 0.00 in0.0 mm 0.00 in0.0 mm
02:39 AM 31.1°F-0.5°C 26.8°F-2.9°C 84% 4.5 mph ESE7.2 kmh ESE 7.0 mph11.3 kmh 30.47 in1031.8 mb 0.00 in0.0 mm 0.00 in0.0 mm 0.00 in0.0 mm
02:38 AM 31.1°F-0.5°C 26.8°F-2.9°C 84% 3.0 mph ESE4.8 kmh ESE 6.0 mph9.7 kmh 30.47 in1031.8 mb 0.00 in0.0 mm 0.00 in0.0 mm 0.00 in0.0 mm
02:37 AM 31.1°F-0.5°C 26.8°F-2.9°C 84% 3.5 mph ESE5.6 kmh ESE 6.0 mph9.7 kmh 30.47 in1031.8 mb 0.00 in0.0 mm 0.00 in0.0 mm 0.00 in0.0 mm
02:36 AM 31.1°F-0.5°C 26.8°F-2.9°C 84% 4.0 mph E6.4 kmh E 6.0 mph9.7 kmh 30.46 in1031.5 mb 0.00 in0.0 mm 0.00 in0.0 mm 0.00 in0.0 mm
02:35 AM 31.1°F-0.5°C 26.8°F-2.9°C 84% 4.2 mph ESE6.8 kmh ESE 7.0 mph11.3 kmh 30.47 in1031.8 mb 0.00 in0.0 mm 0.00 in0.0 mm 0.00 in0.0 mm
02:34 AM 31.2°F-0.4°C 26.9°F-2.8°C 84% 4.5 mph ESE7.2 kmh ESE 7.0 mph11.3 kmh 30.46 in1031.5 mb 0.00 in0.0 mm 0.00 in0.0 mm 0.00 in0.0 mm
02:33 AM 31.2°F-0.4°C 26.9°F-2.8°C 84% 3.2 mph E5.1 kmh E 6.0 mph9.7 kmh 30.47 in1031.8 mb 0.00 in0.0 mm 0.00 in0.0 mm 0.00 in0.0 mm
02:32 AM 31.1°F-0.5°C 26.8°F-2.9°C 84% 3.9 mph E6.3 kmh E 8.0 mph12.9 kmh 30.46 in1031.5 mb 0.00 in0.0 mm 0.00 in0.0 mm 0.00 in0.0 mm
02:31 AM 31.2°F-0.4°C 26.9°F-2.8°C 84% 4.5 mph ESE7.2 kmh ESE 8.0 mph12.9 kmh 30.46 in1031.5 mb 0.00 in0.0 mm 0.00 in0.0 mm 0.00 in0.0 mm
02:30 AM 31.2°F-0.4°C 26.9°F-2.8°C 84% 3.5 mph ESE5.6 kmh ESE 6.0 mph9.7 kmh 30.46 in1031.5 mb 0.00 in0.0 mm 0.00 in0.0 mm 0.00 in0.0 mm
02:29 AM 31.2°F-0.4°C 26.9°F-2.8°C 84% 3.3 mph E5.3 kmh E 7.0 mph11.3 kmh 30.46 in1031.5 mb 0.00 in0.0 mm 0.00 in0.0 mm 0.00 in0.0 mm
02:28 AM 31.1°F-0.5°C 26.8°F-2.9°C 84% 5.6 mph E9.0 kmh E 7.0 mph11.3 kmh 30.46 in1031.5 mb 0.00 in0.0 mm 0.00 in0.0 mm 0.00 in0.0 mm
02:27 AM 31.1°F-0.5°C 26.8°F-2.9°C 84% 4.6 mph ESE7.4 kmh ESE 7.0 mph11.3 kmh 30.46 in1031.5 mb 0.00 in0.0 mm 0.00 in0.0 mm 0.00 in0.0 mm
02:26 AM 31.1°F-0.5°C 26.8°F-2.9°C 84% 5.5 mph ESE8.9 kmh ESE 7.0 mph11.3 kmh 30.46 in1031.5 mb 0.00 in0.0 mm 0.00 in0.0 mm 0.00 in0.0 mm
02:25 AM 31.1°F-0.5°C 26.8°F-2.9°C 84% 5.3 mph ESE8.5 kmh ESE 9.0 mph14.5 kmh 30.46 in1031.5 mb 0.00 in0.0 mm 0.00 in0.0 mm 0.00 in0.0 mm
02:24 AM 31.2°F-0.4°C 26.9°F-2.8°C 84% 6.4 mph ESE10.3 kmh ESE 9.0 mph14.5 kmh 30.46 in1031.5 mb 0.00 in0.0 mm 0.00 in0.0 mm 0.00 in0.0 mm
02:23 AM 31.1°F-0.5°C 26.8°F-2.9°C 84% 5.7 mph ESE9.2 kmh ESE 8.0 mph12.9 kmh 30.46 in1031.5 mb 0.00 in0.0 mm 0.00 in0.0 mm 0.00 in0.0 mm
02:22 AM 31.1°F-0.5°C 26.8°F-2.9°C 84% 4.0 mph ESE6.4 kmh ESE 7.0 mph11.3 kmh 30.46 in1031.5 mb 0.00 in0.0 mm 0.00 in0.0 mm 0.00 in0.0 mm
02:21 AM 31.1°F-0.5°C 26.8°F-2.9°C 84% 4.5 mph E7.2 kmh E 7.0 mph11.3 kmh 30.46 in1031.5 mb 0.00 in0.0 mm 0.00 in0.0 mm 0.00 in0.0 mm
02:20 AM 31.2°F-0.4°C 26.9°F-2.8°C 84% 5.1 mph ESE8.2 kmh ESE 7.0 mph11.3 kmh 30.46 in1031.5 mb 0.00 in0.0 mm 0.00 in0.0 mm 0.00 in0.0 mm
02:19 AM 31.1°F-0.5°C 26.8°F-2.9°C 84% 5.1 mph ESE8.2 kmh ESE 8.0 mph12.9 kmh 30.46 in1031.5 mb 0.00 in0.0 mm 0.00 in0.0 mm 0.00 in0.0 mm
02:18 AM 31.1°F-0.5°C 26.8°F-2.9°C 84% 5.8 mph E9.3 kmh E 9.0 mph14.5 kmh 30.46 in1031.5 mb 0.00 in0.0 mm 0.00 in0.0 mm 0.00 in0.0 mm
02:17 AM 31.2°F-0.4°C 26.9°F-2.8°C 84% 6.5 mph ESE10.5 kmh ESE 9.0 mph14.5 kmh 30.46 in1031.5 mb 0.00 in0.0 mm 0.00 in0.0 mm 0.00 in0.0 mm
02:16 AM 31.1°F-0.5°C 26.8°F-2.9°C 84% 4.7 mph ESE7.6 kmh ESE 8.0 mph12.9 kmh 30.46 in1031.5 mb 0.00 in0.0 mm 0.00 in0.0 mm 0.00 in0.0 mm
02:15 AM 31.1°F-0.5°C 26.8°F-2.9°C 84% 5.3 mph E8.5 kmh E 8.0 mph12.9 kmh 30.46 in1031.5 mb 0.00 in0.0 mm 0.00 in0.0 mm 0.00 in0.0 mm
02:14 AM 31.1°F-0.5°C 26.8°F-2.9°C 84% 5.0 mph ESE8.0 kmh ESE 9.0 mph14.5 kmh 30.46 in1031.5 mb 0.00 in0.0 mm 0.00 in0.0 mm 0.00 in0.0 mm
02:13 AM 31.1°F-0.5°C 26.8°F-2.9°C 84% 6.3 mph ESE10.1 kmh ESE 9.0 mph14.5 kmh 30.46 in1031.5 mb 0.00 in0.0 mm 0.00 in0.0 mm 0.00 in0.0 mm
02:12 AM 31.2°F-0.4°C 26.9°F-2.8°C 84% 5.3 mph ESE8.5 kmh ESE 7.0 mph11.3 kmh 30.46 in1031.5 mb 0.00 in0.0 mm 0.00 in0.0 mm 0.00 in0.0 mm
02:11 AM 31.1°F-0.5°C 26.8°F-2.9°C 84% 4.9 mph E7.9 kmh E 9.0 mph14.5 kmh 30.46 in1031.5 mb 0.00 in0.0 mm 0.00 in0.0 mm 0.00 in0.0 mm
02:10 AM 31.1°F-0.5°C 27.1°F-2.7°C 85% 6.7 mph ESE10.8 kmh ESE 10.0 mph16.1 kmh 30.46 in1031.5 mb 0.00 in0.0 mm 0.00 in0.0 mm 0.00 in0.0 mm
02:09 AM 31.1°F-0.5°C 27.1°F-2.7°C 85% 5.5 mph ESE8.9 kmh ESE 10.0 mph16.1 kmh 30.46 in1031.5 mb 0.00 in0.0 mm 0.00 in0.0 mm 0.00 in0.0 mm
02:08 AM 31.1°F-0.5°C 27.1°F-2.7°C 85% 5.9 mph ESE9.5 kmh ESE 8.0 mph12.9 kmh 30.46 in1031.5 mb 0.00 in0.0 mm 0.00 in0.0 mm 0.00 in0.0 mm
02:07 AM 31.1°F-0.5°C 27.1°F-2.7°C 85% 5.4 mph ESE8.7 kmh ESE 8.0 mph12.9 kmh 30.46 in1031.5 mb 0.00 in0.0 mm 0.00 in0.0 mm 0.00 in0.0 mm
02:06 AM 31.2°F-0.4°C 27.2°F-2.7°C 85% 4.9 mph ESE7.9 kmh ESE 8.0 mph12.9 kmh 30.46 in1031.5 mb 0.00 in0.0 mm 0.00 in0.0 mm 0.00 in0.0 mm
02:05 AM 31.1°F-0.5°C 27.1°F-2.7°C 85% 5.3 mph E8.5 kmh E 8.0 mph12.9 kmh 30.46 in1031.5 mb 0.00 in0.0 mm 0.00 in0.0 mm 0.00 in0.0 mm
02:04 AM 31.1°F-0.5°C 26.8°F-2.9°C 84% 4.1 mph ESE6.6 kmh ESE 8.0 mph12.9 kmh 30.46 in1031.5 mb 0.00 in0.0 mm 0.00 in0.0 mm 0.00 in0.0 mm
02:03 AM 31.2°F-0.4°C 26.9°F-2.8°C 84% 3.5 mph E5.6 kmh E 6.0 mph9.7 kmh 30.46 in1031.5 mb 0.00 in0.0 mm 0.00 in0.0 mm 0.00 in0.0 mm
02:02 AM 31.1°F-0.5°C 26.8°F-2.9°C 84% 3.7 mph E6.0 kmh E 6.0 mph9.7 kmh 30.46 in1031.5 mb 0.00 in0.0 mm 0.00 in0.0 mm 0.00 in0.0 mm
02:01 AM 31.2°F-0.4°C 26.9°F-2.8°C 84% 3.2 mph E5.1 kmh E 5.0 mph8.0 kmh 30.46 in1031.5 mb 0.00 in0.0 mm 0.00 in0.0 mm 0.00 in0.0 mm
02:00 AM 31.2°F-0.4°C 26.9°F-2.8°C 84% 3.4 mph E5.5 kmh E 4.0 mph6.4 kmh 30.46 in1031.5 mb 0.00 in0.0 mm 0.00 in0.0 mm 0.00 in0.0 mm
01:59 AM 31.2°F-0.4°C 26.9°F-2.8°C 84% 2.6 mph ESE4.2 kmh ESE 4.0 mph6.4 kmh 30.46 in1031.5 mb 0.00 in0.0 mm 0.00 in0.0 mm 0.00 in0.0 mm
01:58 AM 31.2°F-0.4°C 26.9°F-2.8°C 84% 3.6 mph ESE5.8 kmh ESE 7.0 mph11.3 kmh 30.46 in1031.5 mb 0.00 in0.0 mm 0.00 in0.0 mm 0.00 in0.0 mm
01:57 AM 31.2°F-0.4°C 26.9°F-2.8°C 84% 3.8 mph SE6.1 kmh SE 7.0 mph11.3 kmh 30.46 in1031.5 mb 0.00 in0.0 mm 0.00 in0.0 mm 0.00 in0.0 mm
01:56 AM 31.2°F-0.4°C 26.9°F-2.8°C 84% 4.1 mph ESE6.6 kmh ESE 8.0 mph12.9 kmh 30.46 in1031.5 mb 0.00 in0.0 mm 0.00 in0.0 mm 0.00 in0.0 mm
01:55 AM 31.3°F-0.4°C 27.0°F-2.8°C 84% 5.1 mph E8.2 kmh E 8.0 mph12.9 kmh 30.46 in1031.5 mb 0.00 in0.0 mm 0.00 in0.0 mm 0.00 in0.0 mm
01:54 AM 31.3°F-0.4°C 27.0°F-2.8°C 84% 4.1 mph ESE6.6 kmh ESE 8.0 mph12.9 kmh 30.46 in1031.5 mb 0.00 in0.0 mm 0.00 in0.0 mm 0.00 in0.0 mm
01:53 AM 31.3°F-0.4°C 27.0°F-2.8°C 84% 5.7 mph ESE9.2 kmh ESE 8.0 mph12.9 kmh 30.46 in1031.5 mb 0.00 in0.0 mm 0.00 in0.0 mm 0.00 in0.0 mm
01:52 AM 31.3°F-0.4°C 27.0°F-2.8°C 84% 3.5 mph ESE5.6 kmh ESE 7.0 mph11.3 kmh 30.46 in1031.5 mb 0.00 in0.0 mm 0.00 in0.0 mm 0.00 in0.0 mm
01:51 AM 31.4°F-0.3°C 27.1°F-2.7°C 84% 5.1 mph ESE8.2 kmh ESE 7.0 mph11.3 kmh 30.46 in1031.5 mb 0.00 in0.0 mm 0.00 in0.0 mm 0.00 in0.0 mm
01:50 AM 31.4°F-0.3°C 27.1°F-2.7°C 84% 3.2 mph E5.1 kmh E 4.0 mph6.4 kmh 30.46 in1031.5 mb 0.00 in0.0 mm 0.00 in0.0 mm 0.00 in0.0 mm
01:49 AM 31.5°F-0.3°C 27.2°F-2.7°C 84% 3.0 mph E4.8 kmh E 4.0 mph6.4 kmh 30.46 in1031.5 mb 0.00 in0.0 mm 0.00 in0.0 mm 0.00 in0.0 mm
01:48 AM 31.5°F-0.3°C 27.2°F-2.7°C 84% 2.8 mph E4.5 kmh E 4.0 mph6.4 kmh 30.46 in1031.5 mb 0.00 in0.0 mm 0.00 in0.0 mm 0.00 in0.0 mm
01:47 AM 31.5°F-0.3°C 27.2°F-2.7°C 84% 2.6 mph E4.2 kmh E 4.0 mph6.4 kmh 30.46 in1031.5 mb 0.00 in0.0 mm 0.00 in0.0 mm 0.00 in0.0 mm
01:46 AM 31.5°F-0.3°C 27.2°F-2.7°C 84% 2.9 mph E4.7 kmh E 6.0 mph9.7 kmh 30.45 in1031.2 mb 0.00 in0.0 mm 0.00 in0.0 mm 0.00 in0.0 mm
01:45 AM 31.5°F-0.3°C 27.2°F-2.7°C 84% 3.5 mph ESE5.6 kmh ESE 6.0 mph9.7 kmh 30.45 in1031.2 mb 0.00 in0.0 mm 0.00 in0.0 mm 0.00 in0.0 mm
01:44 AM 31.5°F-0.3°C 27.2°F-2.7°C 84% 3.5 mph ESE5.6 kmh ESE 6.0 mph9.7 kmh 30.45 in1031.2 mb 0.00 in0.0 mm 0.00 in0.0 mm 0.00 in0.0 mm
01:43 AM 31.6°F-0.2°C 27.3°F-2.6°C 84% 3.5 mph ESE5.6 kmh ESE 5.0 mph8.0 kmh 30.45 in1031.2 mb 0.00 in0.0 mm 0.00 in0.0 mm 0.00 in0.0 mm
01:42 AM 31.6°F-0.2°C 27.3°F-2.6°C 84% 3.5 mph ESE5.6 kmh ESE 6.0 mph9.7 kmh 30.45 in1031.2 mb 0.00 in0.0 mm 0.00 in0.0 mm 0.00 in0.0 mm
01:41 AM 31.7°F-0.2°C 27.4°F-2.6°C 84% 3.5 mph ESE5.6 kmh ESE 6.0 mph9.7 kmh 30.45 in1031.2 mb 0.00 in0.0 mm 0.00 in0.0 mm 0.00 in0.0 mm
01:40 AM 31.7°F-0.2°C 27.4°F-2.6°C 84% 1.8 mph ESE2.9 kmh ESE 4.0 mph6.4 kmh 30.45 in1031.2 mb 0.00 in0.0 mm 0.00 in0.0 mm 0.00 in0.0 mm
01:39 AM 31.7°F-0.2°C 27.4°F-2.6°C 84% 2.6 mph E4.2 kmh E 4.0 mph6.4 kmh 30.45 in1031.2 mb 0.00 in0.0 mm 0.00 in0.0 mm 0.00 in0.0 mm
01:38 AM 31.7°F-0.2°C 27.4°F-2.6°C 84% 3.0 mph E4.8 kmh E 6.0 mph9.7 kmh 30.45 in1031.2 mb 0.00 in0.0 mm 0.00 in0.0 mm 0.00 in0.0 mm
01:37 AM 31.8°F-0.1°C 27.5°F-2.5°C 84% 4.9 mph ESE7.9 kmh ESE 6.0 mph9.7 kmh 30.45 in1031.2 mb 0.00 in0.0 mm 0.00 in0.0 mm 0.00 in0.0 mm
01:36 AM 31.8°F-0.1°C 27.5°F-2.5°C 84% 3.1 mph ESE5.0 kmh ESE 6.0 mph9.7 kmh 30.45 in1031.2 mb 0.00 in0.0 mm 0.00 in0.0 mm 0.00 in0.0 mm
01:35 AM 31.8°F-0.1°C 27.5°F-2.5°C 84% 3.9 mph ESE6.3 kmh ESE 6.0 mph9.7 kmh 30.45 in1031.2 mb 0.00 in0.0 mm 0.00 in0.0 mm 0.00 in0.0 mm
01:34 AM 31.8°F-0.1°C 27.5°F-2.5°C 84% 2.5 mph ESE4.0 kmh ESE 4.0 mph6.4 kmh 30.45 in1031.2 mb 0.00 in0.0 mm 0.00 in0.0 mm 0.00 in0.0 mm
01:33 AM 31.8°F-0.1°C 27.5°F-2.5°C 84% 2.4 mph ESE3.9 kmh ESE 4.0 mph6.4 kmh 30.45 in1031.2 mb 0.00 in0.0 mm 0.00 in0.0 mm 0.00 in0.0 mm
01:32 AM 31.8°F-0.1°C 27.5°F-2.5°C 84% 2.7 mph ESE4.3 kmh ESE 4.0 mph6.4 kmh 30.45 in1031.2 mb 0.00 in0.0 mm 0.00 in0.0 mm 0.00 in0.0 mm
01:31 AM 31.9°F-0.1°C 27.6°F-2.4°C 84% 2.3 mph ESE3.7 kmh ESE 3.0 mph4.8 kmh 30.45 in1031.2 mb 0.00 in0.0 mm 0.00 in0.0 mm 0.00 in0.0 mm
01:30 AM 31.9°F-0.1°C 27.6°F-2.4°C 84% 2.6 mph ESE4.2 kmh ESE 4.0 mph6.4 kmh 30.45 in1031.2 mb 0.00 in0.0 mm 0.00 in0.0 mm 0.00 in0.0 mm
01:29 AM 31.9°F-0.1°C 27.6°F-2.4°C 84% 2.9 mph ESE4.7 kmh ESE 4.0 mph6.4 kmh 30.45 in1031.2 mb 0.00 in0.0 mm 0.00 in0.0 mm 0.00 in0.0 mm
01:28 AM 31.9°F-0.1°C 27.6°F-2.4°C 84% 3.1 mph ESE5.0 kmh ESE 4.0 mph6.4 kmh 30.45 in1031.2 mb 0.00 in0.0 mm 0.00 in0.0 mm 0.00 in0.0 mm
01:27 AM 31.9°F-0.1°C 27.6°F-2.4°C 84% 2.4 mph ESE3.9 kmh ESE 3.0 mph4.8 kmh 30.45 in1031.2 mb 0.00 in0.0 mm 0.00 in0.0 mm 0.00 in0.0 mm
01:26 AM 31.9°F-0.1°C 27.6°F-2.4°C 84% 1.2 mph ESE1.9 kmh ESE 3.0 mph4.8 kmh 30.45 in1031.2 mb 0.00 in0.0 mm 0.00 in0.0 mm 0.00 in0.0 mm
01:25 AM 31.9°F-0.1°C 27.6°F-2.4°C 84% 1.8 mph ESE2.9 kmh ESE 4.0 mph6.4 kmh 30.45 in1031.2 mb 0.00 in0.0 mm 0.00 in0.0 mm 0.00 in0.0 mm
01:24 AM 31.9°F-0.1°C 27.6°F-2.4°C 84% 2.6 mph ESE4.2 kmh ESE 4.0 mph6.4 kmh 30.45 in1031.2 mb 0.00 in0.0 mm 0.00 in0.0 mm 0.00 in0.0 mm
01:23 AM 31.9°F-0.1°C 27.6°F-2.4°C 84% 2.5 mph ESE4.0 kmh ESE 4.0 mph6.4 kmh 30.45 in1031.2 mb 0.00 in0.0 mm 0.00 in0.0 mm 0.00 in0.0 mm
01:22 AM 31.9°F-0.1°C 27.6°F-2.4°C 84% 2.9 mph ESE4.7 kmh ESE 4.0 mph6.4 kmh 30.45 in1031.2 mb 0.00 in0.0 mm 0.00 in0.0 mm 0.00 in0.0 mm
01:21 AM 31.9°F-0.1°C 27.6°F-2.4°C 84% 2.9 mph ESE4.7 kmh ESE 4.0 mph6.4 kmh 30.45 in1031.2 mb 0.00 in0.0 mm 0.00 in0.0 mm 0.00 in0.0 mm
01:20 AM 31.9°F-0.1°C 27.6°F-2.4°C 84% 2.8 mph ESE4.5 kmh ESE 6.0 mph9.7 kmh 30.45 in1031.2 mb 0.00 in0.0 mm 0.00 in0.0 mm 0.00 in0.0 mm
01:19 AM 31.9°F-0.1°C 27.6°F-2.4°C 84% 3.4 mph SE5.5 kmh SE 6.0 mph9.7 kmh 30.45 in1031.2 mb 0.00 in0.0 mm 0.00 in0.0 mm 0.00 in0.0 mm
01:18 AM 32.0°F0.0°C 27.7°F-2.4°C 84% 3.8 mph SE6.1 kmh SE 6.0 mph9.7 kmh 30.45 in1031.2 mb 0.00 in0.0 mm 0.00 in0.0 mm 0.00 in0.0 mm
01:17 AM 32.0°F0.0°C 28.0°F-2.2°C 85% 2.2 mph ESE3.5 kmh ESE 4.0 mph6.4 kmh 30.45 in1031.2 mb 0.00 in0.0 mm 0.00 in0.0 mm 0.00 in0.0 mm
01:16 AM 32.0°F0.0°C 28.0°F-2.2°C 85% 2.4 mph ESE3.9 kmh ESE 4.0 mph6.4 kmh 30.45 in1031.2 mb 0.00 in0.0 mm 0.00 in0.0 mm 0.00 in0.0 mm
01:15 AM 32.0°F0.0°C 28.0°F-2.2°C 85% 2.5 mph ESE4.0 kmh ESE 4.0 mph6.4 kmh 30.45 in1031.2 mb 0.00 in0.0 mm 0.00 in0.0 mm 0.00 in0.0 mm
01:14 AM 32.0°F0.0°C 28.0°F-2.2°C 85% 3.1 mph ESE5.0 kmh ESE 4.0 mph6.4 kmh 30.45 in1031.2 mb 0.00 in0.0 mm 0.00 in0.0 mm 0.00 in0.0 mm
01:13 AM 31.9°F-0.1°C 27.9°F-2.3°C 85% 2.7 mph ESE4.3 kmh ESE 6.0 mph9.7 kmh 30.45 in1031.2 mb 0.00 in0.0 mm 0.00 in0.0 mm 0.00 in0.0 mm
01:12 AM 32.0°F0.0°C 28.0°F-2.2°C 85% 3.8 mph ESE6.1 kmh ESE 6.0 mph9.7 kmh 30.45 in1031.2 mb 0.00 in0.0 mm 0.00 in0.0 mm 0.00 in0.0 mm
01:11 AM 32.0°F0.0°C 28.0°F-2.2°C 85% 3.1 mph ESE5.0 kmh ESE 4.0 mph6.4 kmh 30.45 in1031.2 mb 0.00 in0.0 mm 0.00 in0.0 mm 0.00 in0.0 mm
01:10 AM 32.0°F0.0°C 28.0°F-2.2°C 85% 2.9 mph ESE4.7 kmh ESE 6.0 mph9.7 kmh 30.45 in1031.2 mb 0.00 in0.0 mm 0.00 in0.0 mm 0.00 in0.0 mm
01:09 AM 32.0°F0.0°C 28.0°F-2.2°C 85% 3.4 mph ESE5.5 kmh ESE 6.0 mph9.7 kmh 30.45 in1031.2 mb 0.00 in0.0 mm 0.00 in0.0 mm 0.00 in0.0 mm
01:08 AM 32.0°F0.0°C 28.0°F-2.2°C 85% 3.8 mph SE6.1 kmh SE 6.0 mph9.7 kmh 30.45 in1031.2 mb 0.00 in0.0 mm 0.00 in0.0 mm 0.00 in0.0 mm
01:07 AM 32.0°F0.0°C 28.0°F-2.2°C 85% 4.1 mph SE6.6 kmh SE 8.0 mph12.9 kmh 30.44 in1030.8 mb 0.00 in0.0 mm 0.00 in0.0 mm 0.00 in0.0 mm
01:06 AM 32.0°F0.0°C 28.0°F-2.2°C 85% 6.0 mph SE9.7 kmh SE 8.0 mph12.9 kmh 30.45 in1031.2 mb 0.00 in0.0 mm 0.00 in0.0 mm 0.00 in0.0 mm
01:05 AM 32.0°F0.0°C 28.0°F-2.2°C 85% 5.8 mph SE9.3 kmh SE 8.0 mph12.9 kmh 30.44 in1030.8 mb 0.00 in0.0 mm 0.00 in0.0 mm 0.00 in0.0 mm
01:04 AM 32.0°F0.0°C 28.0°F-2.2°C 85% 3.2 mph ESE5.1 kmh ESE 8.0 mph12.9 kmh 30.45 in1031.2 mb 0.00 in0.0 mm 0.00 in0.0 mm 0.00 in0.0 mm
01:03 AM 32.0°F0.0°C 28.0°F-2.2°C 85% 3.0 mph ESE4.8 kmh ESE 4.0 mph6.4 kmh 30.44 in1030.8 mb 0.00 in0.0 mm 0.00 in0.0 mm 0.00 in0.0 mm
01:02 AM 32.0°F0.0°C 28.0°F-2.2°C 85% 3.8 mph ESE6.1 kmh ESE 7.0 mph11.3 kmh 30.44 in1030.8 mb 0.00 in0.0 mm 0.00 in0.0 mm 0.00 in0.0 mm
01:01 AM 32.0°F0.0°C 28.0°F-2.2°C 85% 4.9 mph SE7.9 kmh SE 8.0 mph12.9 kmh 30.44 in1030.8 mb 0.00 in0.0 mm 0.00 in0.0 mm 0.00 in0.0 mm
01:00 AM 32.0°F0.0°C 28.0°F-2.2°C 85% 4.2 mph SE6.8 kmh SE 8.0 mph12.9 kmh 30.44 in1030.8 mb 0.00 in0.0 mm 0.00 in0.0 mm 0.00 in0.0 mm
12:59 AM 32.0°F0.0°C 28.0°F-2.2°C 85% 3.5 mph SE5.6 kmh SE 7.0 mph11.3 kmh 30.44 in1030.8 mb 0.00 in0.0 mm 0.00 in0.0 mm 0.00 in0.0 mm
12:58 AM 32.0°F0.0°C 28.0°F-2.2°C 85% 4.0 mph SE6.4 kmh SE 7.0 mph11.3 kmh 30.44 in1030.8 mb 0.00 in0.0 mm 0.00 in0.0 mm 0.00 in0.0 mm
12:57 AM 32.0°F0.0°C 28.0°F-2.2°C 85% 4.0 mph SE6.4 kmh SE 5.0 mph8.0 kmh 30.44 in1030.8 mb 0.00 in0.0 mm 0.00 in0.0 mm 0.00 in0.0 mm
12:56 AM 32.0°F0.0°C 28.0°F-2.2°C 85% 2.2 mph SE3.5 kmh SE 4.0 mph6.4 kmh 30.44 in1030.8 mb 0.00 in0.0 mm 0.00 in0.0 mm 0.00 in0.0 mm
12:55 AM 32.0°F0.0°C 28.0°F-2.2°C 85% 3.2 mph SE5.1 kmh SE 5.0 mph8.0 kmh 30.44 in1030.8 mb 0.00 in0.0 mm 0.00 in0.0 mm 0.00 in0.0 mm
12:54 AM 32.0°F0.0°C 28.0°F-2.2°C 85% 3.8 mph SE6.1 kmh SE 6.0 mph9.7 kmh 30.44 in1030.8 mb 0.00 in0.0 mm 0.00 in0.0 mm 0.00 in0.0 mm
12:53 AM 32.0°F0.0°C 28.0°F-2.2°C 85% 4.5 mph ESE7.2 kmh ESE 7.0 mph11.3 kmh 30.44 in1030.8 mb 0.00 in0.0 mm 0.00 in0.0 mm 0.00 in0.0 mm
12:52 AM 32.0°F0.0°C 28.0°F-2.2°C 85% 4.8 mph SE7.7 kmh SE 7.0 mph11.3 kmh 30.44 in1030.8 mb 0.00 in0.0 mm 0.00 in0.0 mm 0.00 in0.0 mm
12:51 AM 32.0°F0.0°C 28.0°F-2.2°C 85% 3.4 mph SE5.5 kmh SE 8.0 mph12.9 kmh 30.44 in1030.8 mb 0.00 in0.0 mm 0.00 in0.0 mm 0.00 in0.0 mm
12:50 AM 32.0°F0.0°C 28.0°F-2.2°C 85% 4.4 mph SE7.1 kmh SE 8.0 mph12.9 kmh 30.44 in1030.8 mb 0.00 in0.0 mm 0.00 in0.0 mm 0.00 in0.0 mm
12:49 AM 32.0°F0.0°C 28.0°F-2.2°C 85% 5.3 mph SE8.5 kmh SE 7.0 mph11.3 kmh 30.44 in1030.8 mb 0.00 in0.0 mm 0.00 in0.0 mm 0.00 in0.0 mm
12:48 AM 32.0°F0.0°C 28.0°F-2.2°C 85% 3.4 mph ESE5.5 kmh ESE 6.0 mph9.7 kmh 30.44 in1030.8 mb 0.00 in0.0 mm 0.00 in0.0 mm 0.00 in0.0 mm
12:47 AM 32.0°F0.0°C 28.0°F-2.2°C 85% 3.9 mph SE6.3 kmh SE 9.0 mph14.5 kmh 30.44 in1030.8 mb 0.00 in0.0 mm 0.00 in0.0 mm 0.00 in0.0 mm
12:46 AM 32.0°F0.0°C 28.0°F-2.2°C 85% 6.6 mph SE10.6 kmh SE 9.0 mph14.5 kmh 30.44 in1030.8 mb 0.00 in0.0 mm 0.00 in0.0 mm 0.00 in0.0 mm
12:45 AM 32.0°F0.0°C 28.0°F-2.2°C 85% 4.3 mph SE6.9 kmh SE 9.0 mph14.5 kmh 30.44 in1030.8 mb 0.00 in0.0 mm 0.00 in0.0 mm 0.00 in0.0 mm
12:44 AM 32.0°F0.0°C 28.0°F-2.2°C 85% 6.4 mph SE10.3 kmh SE 9.0 mph14.5 kmh 30.44 in1030.8 mb 0.00 in0.0 mm 0.00 in0.0 mm 0.00 in0.0 mm
12:43 AM 32.0°F0.0°C 28.0°F-2.2°C 85% 6.5 mph SE10.5 kmh SE 9.0 mph14.5 kmh 30.44 in1030.8 mb 0.00 in0.0 mm 0.00 in0.0 mm 0.00 in0.0 mm
12:42 AM 32.0°F0.0°C 28.0°F-2.2°C 85% 6.4 mph SE10.3 kmh SE 8.0 mph12.9 kmh 30.44 in1030.8 mb 0.00 in0.0 mm 0.00 in0.0 mm 0.00 in0.0 mm
12:41 AM 32.0°F0.0°C 28.0°F-2.2°C 85% 6.7 mph SE10.8 kmh SE 10.0 mph16.1 kmh 30.43 in1030.5 mb 0.00 in0.0 mm 0.00 in0.0 mm 0.00 in0.0 mm
12:40 AM 32.0°F0.0°C 28.0°F-2.2°C 85% 7.6 mph SE12.2 kmh SE 10.0 mph16.1 kmh 30.44 in1030.8 mb 0.00 in0.0 mm 0.00 in0.0 mm 0.00 in0.0 mm
12:39 AM 32.0°F0.0°C 28.0°F-2.2°C 85% 7.3 mph SE11.7 kmh SE 9.0 mph14.5 kmh 30.44 in1030.8 mb 0.00 in0.0 mm 0.00 in0.0 mm 0.00 in0.0 mm
12:38 AM 32.0°F0.0°C 28.0°F-2.2°C 85% 7.4 mph SE11.9 kmh SE 9.0 mph14.5 kmh 30.43 in1030.5 mb 0.00 in0.0 mm 0.00 in0.0 mm 0.00 in0.0 mm
12:37 AM 32.0°F0.0°C 28.0°F-2.2°C 85% 7.3 mph SE11.7 kmh SE 9.0 mph14.5 kmh 30.44 in1030.8 mb 0.00 in0.0 mm 0.00 in0.0 mm 0.00 in0.0 mm
12:36 AM 32.0°F0.0°C 28.0°F-2.2°C 85% 7.2 mph SE11.6 kmh SE 9.0 mph14.5 kmh 30.44 in1030.8 mb 0.00 in0.0 mm 0.00 in0.0 mm 0.00 in0.0 mm
12:35 AM 32.0°F0.0°C 28.0°F-2.2°C 85% 4.8 mph SE7.7 kmh SE 9.0 mph14.5 kmh 30.43 in1030.5 mb 0.00 in0.0 mm 0.00 in0.0 mm 0.00 in0.0 mm
12:34 AM 32.0°F0.0°C 28.0°F-2.2°C 85% 7.3 mph SE11.7 kmh SE 10.0 mph16.1 kmh 30.43 in1030.5 mb 0.00 in0.0 mm 0.00 in0.0 mm 0.00 in0.0 mm
12:33 AM 32.0°F0.0°C 28.0°F-2.2°C 85% 6.0 mph SE9.7 kmh SE 10.0 mph16.1 kmh 30.43 in1030.5 mb 0.00 in0.0 mm 0.00 in0.0 mm 0.00 in0.0 mm
12:32 AM 32.0°F0.0°C 28.0°F-2.2°C 85% 7.8 mph SE12.6 kmh SE 10.0 mph16.1 kmh 30.44 in1030.8 mb 0.00 in0.0 mm 0.00 in0.0 mm 0.00 in0.0 mm
12:31 AM 32.0°F0.0°C 28.0°F-2.2°C 85% 6.1 mph SE9.8 kmh SE 10.0 mph16.1 kmh 30.43 in1030.5 mb 0.00 in0.0 mm 0.00 in0.0 mm 0.00 in0.0 mm
12:30 AM 32.0°F0.0°C 28.0°F-2.2°C 85% 7.4 mph ESE11.9 kmh ESE 10.0 mph16.1 kmh 30.43 in1030.5 mb 0.00 in0.0 mm 0.00 in0.0 mm 0.00 in0.0 mm
12:29 AM 32.0°F0.0°C 28.0°F-2.2°C 85% 8.4 mph ESE13.5 kmh ESE 10.0 mph16.1 kmh 30.43 in1030.5 mb 0.00 in0.0 mm 0.00 in0.0 mm 0.00 in0.0 mm
12:28 AM 32.0°F0.0°C 28.0°F-2.2°C 85% 6.8 mph ESE10.9 kmh ESE 10.0 mph16.1 kmh 30.43 in1030.5 mb 0.00 in0.0 mm 0.00 in0.0 mm 0.00 in0.0 mm
12:27 AM 32.0°F0.0°C 28.0°F-2.2°C 85% 7.5 mph ESE12.1 kmh ESE 11.0 mph17.7 kmh 30.43 in1030.5 mb 0.00 in0.0 mm 0.00 in0.0 mm 0.00 in0.0 mm
12:26 AM 32.0°F0.0°C 28.0°F-2.2°C 85% 7.7 mph SE12.4 kmh SE 11.0 mph17.7 kmh 30.43 in1030.5 mb 0.00 in0.0 mm 0.00 in0.0 mm 0.00 in0.0 mm
12:25 AM 32.0°F0.0°C 28.0°F-2.2°C 85% 6.6 mph ESE10.6 kmh ESE 9.0 mph14.5 kmh 30.43 in1030.5 mb 0.00 in0.0 mm 0.00 in0.0 mm 0.00 in0.0 mm
12:24 AM 32.0°F0.0°C 28.0°F-2.2°C 85% 6.8 mph ESE10.9 kmh ESE 9.0 mph14.5 kmh 30.43 in1030.5 mb 0.00 in0.0 mm 0.00 in0.0 mm 0.00 in0.0 mm
12:23 AM 32.0°F0.0°C 28.0°F-2.2°C 85% 6.7 mph ESE10.8 kmh ESE 9.0 mph14.5 kmh 30.43 in1030.5 mb 0.00 in0.0 mm 0.00 in0.0 mm 0.00 in0.0 mm
12:22 AM 32.0°F0.0°C 28.0°F-2.2°C 85% 6.1 mph ESE9.8 kmh ESE 8.0 mph12.9 kmh 30.43 in1030.5 mb 0.00 in0.0 mm 0.00 in0.0 mm 0.00 in0.0 mm
12:21 AM 32.0°F0.0°C 28.0°F-2.2°C 85% 5.0 mph ESE8.0 kmh ESE 7.0 mph11.3 kmh 30.43 in1030.5 mb 0.00 in0.0 mm 0.00 in0.0 mm 0.00 in0.0 mm
12:20 AM 32.0°F0.0°C 28.0°F-2.2°C 85% 4.8 mph ESE7.7 kmh ESE 7.0 mph11.3 kmh 30.44 in1030.8 mb 0.00 in0.0 mm 0.00 in0.0 mm 0.00 in0.0 mm
12:19 AM 32.0°F0.0°C 28.0°F-2.2°C 85% 5.0 mph SE8.0 kmh SE 7.0 mph11.3 kmh 30.43 in1030.5 mb 0.00 in0.0 mm 0.00 in0.0 mm 0.00 in0.0 mm
12:18 AM 32.1°F0.1°C 28.1°F-2.2°C 85% 5.5 mph ESE8.9 kmh ESE 7.0 mph11.3 kmh 30.43 in1030.5 mb 0.00 in0.0 mm 0.00 in0.0 mm 0.00 in0.0 mm
12:17 AM 32.1°F0.1°C 28.1°F-2.2°C 85% 4.8 mph ESE7.7 kmh ESE 8.0 mph12.9 kmh 30.43 in1030.5 mb 0.00 in0.0 mm 0.00 in0.0 mm 0.00 in0.0 mm
12:16 AM 32.0°F0.0°C 28.0°F-2.2°C 85% 6.1 mph SE9.8 kmh SE 9.0 mph14.5 kmh 30.43 in1030.5 mb 0.00 in0.0 mm 0.00 in0.0 mm 0.00 in0.0 mm
12:15 AM 32.0°F0.0°C 28.0°F-2.2°C 85% 6.0 mph ESE9.7 kmh ESE 9.0 mph14.5 kmh 30.43 in1030.5 mb 0.00 in0.0 mm 0.00 in0.0 mm 0.00 in0.0 mm
12:14 AM 32.1°F0.1°C 28.1°F-2.2°C 85% 7.2 mph SE11.6 kmh SE 9.0 mph14.5 kmh 30.43 in1030.5 mb 0.00 in0.0 mm 0.00 in0.0 mm 0.00 in0.0 mm
12:13 AM 32.0°F0.0°C 28.0°F-2.2°C 85% 6.4 mph ESE10.3 kmh ESE 9.0 mph14.5 kmh 30.43 in1030.5 mb 0.00 in0.0 mm 0.00 in0.0 mm 0.00 in0.0 mm
12:12 AM 32.1°F0.1°C 28.1°F-2.2°C 85% 5.2 mph ESE8.4 kmh ESE 9.0 mph14.5 kmh 30.43 in1030.5 mb 0.00 in0.0 mm 0.00 in0.0 mm 0.00 in0.0 mm
12:11 AM 32.0°F0.0°C 28.0°F-2.2°C 85% 5.8 mph ESE9.3 kmh ESE 9.0 mph14.5 kmh 30.43 in1030.5 mb 0.00 in0.0 mm 0.00 in0.0 mm 0.00 in0.0 mm
12:10 AM 32.1°F0.1°C 28.1°F-2.2°C 85% 7.3 mph SE11.7 kmh SE 9.0 mph14.5 kmh 30.43 in1030.5 mb 0.00 in0.0 mm 0.00 in0.0 mm 0.00 in0.0 mm
12:09 AM 32.0°F0.0°C 28.0°F-2.2°C 85% 6.4 mph ESE10.3 kmh ESE 9.0 mph14.5 kmh 30.43 in1030.5 mb 0.00 in0.0 mm 0.00 in0.0 mm 0.00 in0.0 mm
12:08 AM 32.0°F0.0°C 28.0°F-2.2°C 85% 7.3 mph SE11.7 kmh SE 9.0 mph14.5 kmh 30.43 in1030.5 mb 0.00 in0.0 mm 0.00 in0.0 mm 0.00 in0.0 mm
12:07 AM 32.1°F0.1°C 28.4°F-2.0°C 86% 7.8 mph ESE12.6 kmh ESE 9.0 mph14.5 kmh 30.43 in1030.5 mb 0.00 in0.0 mm 0.00 in0.0 mm 0.00 in0.0 mm
12:06 AM 32.0°F0.0°C 28.3°F-2.1°C 86% 6.8 mph ESE10.9 kmh ESE 9.0 mph14.5 kmh 30.43 in1030.5 mb 0.00 in0.0 mm 0.00 in0.0 mm 0.00 in0.0 mm
12:05 AM 32.1°F0.1°C 28.4°F-2.0°C 86% 5.5 mph ESE8.9 kmh ESE 8.0 mph12.9 kmh 30.43 in1030.5 mb 0.00 in0.0 mm 0.00 in0.0 mm 0.00 in0.0 mm
12:04 AM 32.0°F0.0°C 28.3°F-2.1°C 86% 6.2 mph SE10.0 kmh SE 8.0 mph12.9 kmh 30.43 in1030.5 mb 0.00 in0.0 mm 0.00 in0.0 mm 0.00 in0.0 mm
12:03 AM 32.1°F0.1°C 28.4°F-2.0°C 86% 3.7 mph SE6.0 kmh SE 7.0 mph11.3 kmh 30.43 in1030.5 mb 0.00 in0.0 mm 0.00 in0.0 mm 0.00 in0.0 mm
12:02 AM 32.1°F0.1°C 28.4°F-2.0°C 86% 4.9 mph SE7.9 kmh SE 8.0 mph12.9 kmh 30.43 in1030.5 mb 0.00 in0.0 mm 0.00 in0.0 mm 0.00 in0.0 mm
12:01 AM 32.0°F0.0°C 28.3°F-2.1°C 86% 5.8 mph ESE9.3 kmh ESE 8.0 mph12.9 kmh 30.43 in1030.5 mb 0.00 in0.0 mm 0.00 in0.0 mm 0.00 in0.0 mm
12:00 AM 32.1°F0.1°C 28.4°F-2.0°C 86% 6.1 mph SE9.8 kmh SE 8.0 mph12.9 kmh 30.43 in1030.5 mb 0.00 in0.0 mm 0.00 in0.0 mm 0.01 in0.3 mm